Time;durP1;ratioP1;P1;durP2;ratioP2;P2;SDS_P1;SDS_P2;PMS_P1;PMS_P2;Temp;Humidity;BMP_temperature;BMP_pressure;BME280_temperature;BME280_humidity;BME280_pressure;Samples;Min_cycle;Max_cycle;Signal;HPM_P1;HPM_P2
2022/09/19 00:01:29;;;;;;;62.80;21.30;;;;;;;-141.97;63.33;47653.63;5013140;28;20175;-81
2022/09/19 00:03:57;;;;;;;64.90;22.57;;;;;;;-141.97;63.33;47647.84;5011726;28;20185;-81
2022/09/19 00:06:23;;;;;;;78.97;28.40;;;;;;;-141.97;64.02;47649.78;5012992;28;20214;-80
2022/09/19 00:08:49;;;;;;;24.57;9.80;;;;;;;-141.97;64.59;47620.94;5012705;28;20254;-81
2022/09/19 00:11:19;;;;;;;8.67;4.60;;;;;;;-141.97;65.15;47669.00;5012317;28;20179;-82
2022/09/19 00:13:47;;;;;;;7.33;3.97;;;;;;;-141.97;65.29;47726.66;5012985;28;20186;-81
2022/09/19 00:16:21;;;;;;;4.83;3.60;;;;;;;-141.97;65.37;47628.63;5012430;28;20218;-82
2022/09/19 00:18:48;;;;;;;5.70;3.70;;;;;;;-141.97;65.94;47659.38;5012510;28;20163;-82
2022/09/19 00:21:25;;;;;;;5.73;3.70;;;;;;;-141.97;66.25;47730.50;5010853;28;20191;-81
2022/09/19 00:26:35;;;;;;;7.93;4.63;;;;;;;-141.97;67.20;47659.38;5012690;28;20301;-80
2022/09/19 00:29:01;;;;;;;16.17;8.17;;;;;;;-141.97;68.30;47620.94;5012385;28;20163;-81
2022/09/19 00:31:27;;;;;;;14.63;7.10;;;;;;;-141.97;68.40;47657.47;5012648;28;20300;-80
2022/09/19 00:33:53;;;;;;;28.03;11.97;;;;;;;-141.97;68.81;47653.63;5012326;28;20170;-80
2022/09/19 00:36:19;;;;;;;8.43;5.57;;;;;;;-141.97;68.93;47653.63;5012307;28;20611;-80
2022/09/19 00:38:45;;;;;;;9.87;5.70;;;;;;;-141.97;68.70;47619.03;5014267;28;20209;-81
2022/09/19 00:41:21;;;;;;;41.60;16.93;;;;;;;-141.97;69.05;47659.38;5015806;28;20180;-80
2022/09/19 00:43:55;;;;;;;20.13;9.27;;;;;;;-141.97;68.46;47649.78;5015127;28;20240;-81
2022/09/19 00:46:23;;;;;;;40.20;15.13;;;;;;;-141.97;68.62;47634.41;5016077;28;20592;-81
2022/09/19 00:49:04;;;;;;;32.07;10.83;;;;;;;-141.97;68.17;47653.63;5016410;28;20163;-82
2022/09/19 00:51:47;;;;;;;27.97;10.30;;;;;;;-141.97;68.65;47672.84;5016321;28;20254;-81
2022/09/19 00:54:17;;;;;;;41.17;15.77;;;;;;;-141.97;68.68;47613.25;5015988;28;20170;-80
2022/09/19 00:56:47;;;;;;;76.70;25.70;;;;;;;-141.97;68.42;47647.84;5015894;28;20206;-81
2022/09/19 00:59:14;;;;;;;120.60;42.00;;;;;;;-141.97;68.17;47688.22;5015970;28;20173;-80
2022/09/19 01:01:40;;;;;;;108.13;38.60;;;;;;;-141.97;68.13;47699.75;5015769;28;20163;-80
2022/09/19 01:04:20;;;;;;;74.87;26.37;;;;;;;-141.97;68.39;47649.78;5015811;28;20166;-81
2022/09/19 01:06:49;;;;;;;32.63;13.23;;;;;;;-141.97;67.46;47638.25;5015602;28;20553;-80
2022/09/19 01:09:39;;;;;;;21.20;8.77;;;;;;;-141.97;67.40;47653.63;5015790;28;20245;-81
2022/09/19 01:12:31;;;;;;;33.87;14.63;;;;;;;-141.97;66.69;47594.03;5015727;28;20187;-80
2022/09/19 01:15:08;;;;;;;19.87;8.53;;;;;;;-141.97;66.36;47670.91;5015042;28;20174;-81
2022/09/19 01:17:41;;;;;;;14.53;6.67;;;;;;;-141.97;67.20;47680.53;5015532;28;20237;-81
2022/09/19 01:20:24;;;;;;;11.30;6.03;;;;;;;-141.97;66.86;47665.16;5015512;28;20177;-81
2022/09/19 01:23:15;;;;;;;7.30;4.03;;;;;;;-141.97;66.00;47665.16;5015627;28;20171;-81
2022/09/19 01:26:03;;;;;;;5.90;3.70;;;;;;;-141.97;66.25;47611.34;5015881;28;20234;-81
2022/09/19 01:28:41;;;;;;;7.13;4.37;;;;;;;-141.97;66.77;47642.09;5014916;28;20503;-81
2022/09/19 01:31:19;;;;;;;9.50;4.43;;;;;;;-141.97;66.67;47651.69;5014647;28;20167;-80
2022/09/19 01:34:08;;;;;;;46.80;18.97;;;;;;;-141.97;66.73;47669.00;5014952;28;20178;-81
2022/09/19 01:36:41;;;;;;;99.50;36.27;;;;;;;-141.97;66.63;47669.00;5014072;28;20207;-80
2022/09/19 01:39:09;;;;;;;58.17;24.03;;;;;;;-141.97;65.55;47684.38;5015233;28;20155;-80
2022/09/19 01:41:35;;;;;;;140.73;49.90;;;;;;;-141.97;65.58;47680.53;5015047;28;20654;-82
2022/09/19 01:44:05;;;;;;;68.47;28.13;;;;;;;-141.97;65.22;47665.16;5014941;28;20175;-82
2022/09/19 01:46:52;;;;;;;39.57;19.20;;;;;;;-141.97;64.48;47619.03;5015451;28;20653;-82
2022/09/19 01:49:52;;;;;;;21.73;9.50;;;;;;;-141.97;64.43;47680.53;5014888;28;20162;-81
2022/09/19 01:52:23;;;;;;;110.77;42.30;;;;;;;-141.97;63.28;47638.25;5015015;28;20635;-81
2022/09/19 01:55:10;;;;;;;55.30;24.53;;;;;;;-141.97;63.20;47611.34;5014643;28;20163;-81
2022/09/19 01:57:48;;;;;;;62.40;25.97;;;;;;;-141.97;62.80;47672.84;5014131;28;20631;-82
2022/09/19 02:00:16;;;;;;;72.97;28.63;;;;;;;-141.97;63.51;47647.84;5014118;28;20257;-82
2022/09/19 02:03:22;;;;;;;13.87;6.97;;;;;;;-141.97;63.73;47642.09;5015107;28;20701;-83
2022/09/19 02:06:02;;;;;;;7.60;4.27;;;;;;;-141.97;64.31;47649.78;4992997;28;20179;-83
2022/09/19 02:08:31;;;;;;;8.47;3.93;;;;;;;-141.97;64.17;47638.25;4992642;28;20218;-83
2022/09/19 02:11:04;;;;;;;5.47;2.80;;;;;;;-141.97;64.22;47667.06;4992419;28;20175;-83
2022/09/19 02:13:33;;;;;;;5.23;2.90;;;;;;;-141.97;65.23;47680.53;4992875;28;20194;-80
2022/09/19 02:16:11;;;;;;;3.27;2.70;;;;;;;-141.97;65.50;47615.19;4976067;28;20702;-81
2022/09/19 02:18:57;;;;;;;6.10;2.83;;;;;;;-141.97;66.10;47626.72;4993057;28;20259;-81
2022/09/19 02:21:36;;;;;;;4.17;2.60;;;;;;;-141.97;65.26;47634.41;4992488;28;20202;-82
2022/09/19 02:24:06;;;;;;;5.90;2.67;;;;;;;-141.97;65.02;47626.72;4992535;28;20191;-81
2022/09/19 02:26:33;;;;;;;4.23;2.60;;;;;;;-141.97;64.39;47609.41;4993099;28;20266;-81
2022/09/19 02:29:01;;;;;;;4.20;2.50;;;;;;;-141.97;64.09;47667.06;4993773;28;20230;-82
2022/09/19 02:31:27;;;;;;;3.80;2.30;;;;;;;-141.97;64.06;47611.34;4992655;28;20176;-81
2022/09/19 02:33:58;;;;;;;5.17;2.53;;;;;;;-141.97;63.21;47649.78;4992200;28;20176;-81
2022/09/19 02:36:43;;;;;;;5.03;2.47;;;;;;;-141.97;63.18;47619.03;4991550;28;20278;-81
2022/09/19 02:39:09;;;;;;;3.87;2.30;;;;;;;-141.97;62.39;47644.00;4992795;28;20213;-81
2022/09/19 02:41:47;;;;;;;3.63;2.10;;;;;;;-141.97;62.79;47615.19;5005302;28;20222;-81
2022/09/19 02:44:36;;;;;;;4.10;2.50;;;;;;;-141.97;63.35;47682.47;5013994;28;20690;-81
2022/09/19 02:47:24;;;;;;;4.23;2.70;;;;;;;-141.97;63.82;47707.44;5013866;28;20159;-82
2022/09/19 02:49:49;;;;;;;6.00;2.77;;;;;;;-141.97;63.76;47624.78;5013460;28;20177;-82
2022/09/19 02:52:20;;;;;;;3.97;2.87;;;;;;;-141.97;64.24;47630.56;5012348;28;20187;-81
2022/09/19 02:54:53;;;;;;;8.77;3.93;;;;;;;-141.97;63.95;47661.31;5013551;28;20229;-81
2022/09/19 02:57:21;;;;;;;3.87;2.73;;;;;;;-141.97;64.43;47701.69;5013787;28;20183;-81
2022/09/19 02:59:50;;;;;;;8.40;3.97;;;;;;;-141.97;64.91;47663.22;5013176;28;20179;-81
2022/09/19 03:02:21;;;;;;;19.37;8.10;;;;;;;-141.97;66.05;47619.03;5013365;28;20217;-81
2022/09/19 03:04:56;;;;;;;8.37;4.43;;;;;;;-141.97;66.95;47647.84;5013968;28;20594;-81
2022/09/19 03:07:27;;;;;;;5.07;3.13;;;;;;;-141.97;67.49;47642.09;5015457;28;20221;-83
2022/09/19 03:10:05;;;;;;;4.63;3.20;;;;;;;-141.97;68.94;47615.19;5013332;28;20248;-82
2022/09/19 03:12:41;;;;;;;5.70;2.83;;;;;;;-141.97;69.37;47611.34;5013177;28;20182;-82
2022/09/19 03:15:07;;;;;;;5.23;3.10;;;;;;;-141.97;69.13;47619.03;5014560;28;20166;-82
2022/09/19 03:17:40;;;;;;;4.53;3.10;;;;;;;-141.97;69.46;47638.25;5013676;28;20258;-82
2022/09/19 03:20:11;;;;;;;4.80;2.90;;;;;;;-141.97;68.91;47709.38;5013631;28;20165;-82
2022/09/19 03:22:37;;;;;;;5.13;3.17;;;;;;;-141.97;68.33;47634.41;5012661;28;20187;-84
2022/09/19 03:25:02;;;;;;;4.83;2.80;;;;;;;-141.97;68.62;47634.41;5014039;28;20174;-82
2022/09/19 03:27:28;;;;;;;4.10;3.03;;;;;;;-141.97;68.43;47603.66;5014526;28;20167;-82
2022/09/19 03:29:53;;;;;;;4.87;2.90;;;;;;;-141.97;68.01;47615.19;5013407;28;20167;-82
2022/09/19 03:32:25;;;;;;;4.30;2.80;;;;;;;-141.97;67.23;47653.63;5012973;28;20162;-82
2022/09/19 03:34:53;;;;;;;4.63;2.80;;;;;;;-141.97;67.40;47624.78;5013208;28;20158;-82
2022/09/19 03:37:18;;;;;;;5.97;2.87;;;;;;;-141.97;67.84;47669.00;5013503;28;20191;-83
2022/09/19 03:39:45;;;;;;;4.90;2.90;;;;;;;-141.97;67.29;47674.78;5013657;28;20167;-80
2022/09/19 03:42:10;;;;;;;4.57;2.93;;;;;;;-141.97;67.09;47634.41;5013843;28;20259;-81
2022/09/19 03:44:36;;;;;;;4.63;3.10;;;;;;;-141.97;66.82;47607.50;5013281;28;20254;-82
2022/09/19 03:47:01;;;;;;;5.53;2.93;;;;;;;-141.97;65.35;47670.91;5012628;28;20217;-82
2022/09/19 03:49:27;;;;;;;6.27;3.00;;;;;;;-141.97;65.79;47626.72;5013177;28;20166;-79
2022/09/19 03:51:53;;;;;;;5.67;3.00;;;;;;;-141.97;66.00;47634.41;5011832;28;20180;-80
2022/09/19 03:54:18;;;;;;;3.70;2.60;;;;;;;-141.97;65.38;47742.03;5013224;28;20170;-80
2022/09/19 03:56:44;;;;;;;7.10;3.00;;;;;;;-141.97;66.19;47647.84;5012710;28;20229;-81
2022/09/19 03:59:09;;;;;;;3.83;2.80;;;;;;;-141.97;65.86;47599.81;5012594;28;20209;-84
2022/09/19 04:01:34;;;;;;;5.77;2.93;;;;;;;-141.97;66.19;47615.19;5013451;28;20170;-81
2022/09/19 04:04:00;;;;;;;6.70;3.07;;;;;;;-141.97;66.26;47615.19;5012052;28;20162;-81
2022/09/19 04:06:26;;;;;;;8.27;3.20;;;;;;;-141.97;65.69;47615.19;5012813;28;20159;-81
2022/09/19 04:08:51;;;;;;;7.37;3.30;;;;;;;-141.97;65.74;47669.00;5012660;28;20170;-80
2022/09/19 04:11:17;;;;;;;7.63;3.20;;;;;;;-141.97;65.25;47644.00;5008415;28;20216;-81
2022/09/19 04:13:42;;;;;;;9.57;2.90;;;;;;;-141.97;64.71;47607.50;4996067;28;20366;-82
2022/09/19 04:16:08;;;;;;;6.70;3.13;;;;;;;-141.97;64.28;47672.84;5006884;28;20238;-83
2022/09/19 04:18:34;;;;;;;5.97;3.33;;;;;;;-141.97;64.18;47669.00;5011147;28;20261;-82
2022/09/19 04:21:01;;;;;;;4.60;3.03;;;;;;;-141.97;63.89;47722.81;5011444;28;20225;-81
2022/09/19 04:23:26;;;;;;;5.87;2.97;;;;;;;-141.97;64.51;47661.31;5010952;28;20193;-81
2022/09/19 04:25:52;;;;;;;5.73;2.97;;;;;;;-141.97;65.51;47680.53;5011342;28;20182;-82
2022/09/19 04:28:18;;;;;;;8.57;3.00;;;;;;;-141.97;65.20;47632.47;5011110;28;20194;-81
2022/09/19 04:30:44;;;;;;;5.90;3.33;;;;;;;-141.97;65.75;47626.72;5011473;28;20209;-84
2022/09/19 04:33:12;;;;;;;9.73;3.43;;;;;;;-141.97;65.35;47665.16;4995483;28;20222;-82
2022/09/19 04:35:38;;;;;;;8.33;3.23;;;;;;;-141.97;65.38;47630.56;4991928;28;20183;-83
2022/09/19 04:38:09;;;;;;;14.57;3.80;;;;;;;-141.97;65.27;47757.41;5007317;28;20252;-83
2022/09/19 04:40:38;;;;;;;9.70;3.80;;;;;;;-141.97;64.69;47651.69;5013617;28;20193;-83
2022/09/19 04:43:05;;;;;;;7.23;3.70;;;;;;;-141.97;64.18;47657.47;5011661;28;20183;-84
2022/09/19 04:45:31;;;;;;;8.57;3.50;;;;;;;-141.97;62.90;47778.56;5012081;28;20167;-83
2022/09/19 04:47:58;;;;;;;11.10;4.47;;;;;;;-141.97;63.24;47584.44;5011680;28;20678;-83
2022/09/19 04:50:24;;;;;;;9.77;5.47;;;;;;;-141.97;62.94;47672.84;5013196;28;20170;-88
2022/09/19 04:52:53;;;;;;;161.83;53.40;;;;;;;-141.97;62.52;47707.44;5022101;28;20169;-84
2022/09/19 04:55:18;;;;;;;186.60;56.87;;;;;;;-141.97;61.76;47676.69;5016867;28;20541;-82
2022/09/19 04:57:44;;;;;;;158.10;48.63;;;;;;;-141.97;61.04;47653.63;4993324;28;20241;-82
2022/09/19 05:00:10;;;;;;;140.30;44.03;;;;;;;-141.97;61.42;47619.03;5009634;28;20182;-83
2022/09/19 05:02:36;;;;;;;212.20;60.17;;;;;;;-141.97;61.55;47569.06;5011340;28;20266;-82
2022/09/19 05:05:03;;;;;;;128.23;42.77;;;;;;;-141.97;61.19;47747.81;5010312;28;20242;-83
2022/09/19 05:07:33;;;;;;;72.47;26.30;;;;;;;-141.97;61.02;47644.00;5009765;28;20245;-83
2022/09/19 05:10:01;;;;;;;85.83;30.23;;;;;;;-141.97;61.01;47644.00;5008178;28;20988;-83
2022/09/19 05:12:28;;;;;;;133.57;43.83;;;;;;;-141.97;61.04;47653.63;5008616;28;20191;-82
2022/09/19 05:14:53;;;;;;;158.20;50.17;;;;;;;-141.97;61.00;47634.41;5010079;28;20178;-84
2022/09/19 05:17:19;;;;;;;126.07;42.00;;;;;;;-141.97;60.44;47670.91;5009445;28;20277;-82
2022/09/19 05:19:44;;;;;;;249.17;78.77;;;;;;;-141.97;60.37;47626.72;5010773;28;20242;-83
2022/09/19 05:22:10;;;;;;;107.57;36.93;;;;;;;-141.97;60.71;47626.72;5010313;28;20183;-82
2022/09/19 05:24:37;;;;;;;86.57;30.37;;;;;;;-141.97;60.41;47669.00;5010134;28;20190;-82
2022/09/19 05:27:03;;;;;;;110.47;38.83;;;;;;;-141.97;60.38;47634.41;5013037;28;20175;-82
2022/09/19 05:29:28;;;;;;;38.83;14.37;;;;;;;-141.97;60.04;47657.47;5027917;28;20205;-83
2022/09/19 05:32:00;;;;;;;7.70;4.30;;;;;;;-141.97;60.47;47659.38;5027917;28;20190;-82
2022/09/19 05:34:27;;;;;;;8.83;4.00;;;;;;;-141.97;60.84;47676.69;5014403;28;20314;-80
2022/09/19 05:36:52;;;;;;;9.43;4.30;;;;;;;-141.97;60.26;47690.16;5017145;28;20256;-82
2022/09/19 05:39:18;;;;;;;10.90;4.30;;;;;;;-141.97;60.11;47636.31;5023655;28;20576;-84
2022/09/19 05:41:43;;;;;;;11.60;5.70;;;;;;;-141.97;59.54;47620.94;5030868;28;20175;-83
2022/09/19 05:44:09;;;;;;;11.37;4.50;;;;;;;-141.97;59.20;47617.09;5028276;28;20190;-84
2022/09/19 05:46:34;;;;;;;9.13;4.00;;;;;;;-141.97;59.02;47674.78;5015072;28;20270;-83
2022/09/19 05:49:00;;;;;;;4.37;3.27;;;;;;;-141.97;57.93;47617.09;5012188;28;20604;-81
2022/09/19 05:51:25;;;;;;;9.63;5.10;;;;;;;-141.97;58.02;47651.69;5021781;28;20260;-82
2022/09/19 05:53:53;;;;;;;6.93;3.73;;;;;;;-141.97;57.89;47647.84;5011906;28;20186;-82
2022/09/19 05:56:19;;;;;;;9.40;4.40;;;;;;;-141.97;57.88;47661.31;5001636;28;20203;-83
2022/09/19 05:58:44;;;;;;;16.63;10.40;;;;;;;-141.97;57.78;47695.91;5012573;28;20194;-87
2022/09/19 06:01:12;;;;;;;7.87;5.00;;;;;;;-141.97;57.63;47628.63;5011471;28;20186;-82
2022/09/19 06:03:41;;;;;;;7.97;4.40;;;;;;;-141.97;56.40;47692.06;5010050;28;20248;-81
2022/09/19 06:06:13;;;;;;;7.50;4.53;;;;;;;-141.97;56.69;47649.78;5009029;28;20178;-81
2022/09/19 06:08:40;;;;;;;9.87;4.53;;;;;;;-141.97;56.57;47649.78;5010688;28;20204;-82
2022/09/19 06:11:06;;;;;;;5.07;3.40;;;;;;;-141.97;55.86;47651.69;5012546;28;20200;-83
2022/09/19 06:16:17;;;;;;;14.60;3.70;;;;;;;-141.97;55.73;47653.63;5010733;28;20265;-81
2022/09/19 06:18:44;;;;;;;3.67;2.83;;;;;;;-141.97;55.22;47620.94;5011145;28;20220;-81
2022/09/19 06:21:09;;;;;;;5.70;2.93;;;;;;;-141.97;54.57;47626.72;5009089;28;20182;-81
2022/09/19 06:23:35;;;;;;;6.40;3.47;;;;;;;-141.97;53.86;47653.63;5010029;28;20167;-81
2022/09/19 06:26:01;;;;;;;4.90;2.70;;;;;;;-141.97;53.40;47659.38;5010205;28;20178;-82
2022/09/19 06:28:26;;;;;;;6.33;2.80;;;;;;;-141.97;52.62;47634.41;5009737;28;20174;-82
2022/09/19 06:30:53;;;;;;;6.17;2.90;;;;;;;-141.97;52.24;47630.56;5009437;28;20179;-82
2022/09/19 06:33:18;;;;;;;21.83;8.80;;;;;;;-141.97;51.25;47603.66;5009694;28;20182;-82
2022/09/19 06:35:43;;;;;;;18.23;7.77;;;;;;;-141.97;49.99;47626.72;5008663;28;20658;-82
2022/09/19 06:38:09;;;;;;;8.67;4.20;;;;;;;-141.97;50.64;47626.72;5011049;28;20285;-81
2022/09/19 06:40:37;;;;;;;5.43;2.60;;;;;;;-141.97;49.97;47634.41;5012212;28;20291;-80
2022/09/19 06:43:05;;;;;;;3.23;2.50;;;;;;;-141.97;50.02;47638.25;5012595;28;20194;-81
2022/09/19 06:45:37;;;;;;;9.10;2.70;;;;;;;-141.97;49.74;47669.00;5009826;28;20238;-81
2022/09/19 06:48:04;;;;;;;4.70;2.57;;;;;;;-141.97;49.88;47726.66;5010509;28;20175;-80
2022/09/19 06:50:31;;;;;;;4.97;2.30;;;;;;;-141.97;48.65;47607.50;5010856;28;20186;-81
2022/09/19 06:52:56;;;;;;;5.33;2.80;;;;;;;-141.97;48.34;47619.03;5009657;28;20178;-82
2022/09/19 06:55:25;;;;;;;28.27;13.73;;;;;;;-141.97;47.49;47603.66;5009814;28;20186;-81
2022/09/19 06:57:59;;;;;;;19.57;8.57;;;;;;;-141.97;47.49;47730.50;4999676;28;20261;-82
2022/09/19 07:00:30;;;;;;;23.80;10.03;;;;;;;-141.97;47.31;47642.09;5010348;28;20186;-82
2022/09/19 07:03:04;;;;;;;27.07;10.87;;;;;;;-141.97;46.12;47622.88;5010642;28;20182;-82
2022/09/19 07:05:34;;;;;;;13.70;6.40;;;;;;;-141.97;45.90;47615.19;5010329;28;20202;-82
2022/09/19 07:08:00;;;;;;;5.20;3.50;;;;;;;-141.97;44.85;47640.16;5011095;28;20237;-82
2022/09/19 07:10:26;;;;;;;6.20;3.07;;;;;;;-141.97;43.87;47649.78;5011634;28;20202;-82
2022/09/19 07:12:56;;;;;;;12.23;6.07;;;;;;;-141.97;44.44;47657.47;5017069;28;20209;-82
2022/09/19 07:15:23;;;;;;;8.30;4.60;;;;;;;-141.97;44.87;47655.53;5030450;28;20239;-82
2022/09/19 07:17:49;;;;;;;7.00;3.13;;;;;;;-141.97;45.04;47655.53;5022704;28;20280;-84
2022/09/19 07:20:14;;;;;;;17.53;8.27;;;;;;;-141.97;44.25;47632.47;5010893;28;20186;-81
2022/09/19 07:22:40;;;;;;;49.50;24.00;;;;;;;-141.97;43.79;47601.72;5010501;28;20270;-82
2022/09/19 07:25:07;;;;;;;10.17;4.37;;;;;;;-141.97;43.28;47611.34;5009704;28;20269;-80
2022/09/19 07:27:34;;;;;;;5.37;2.90;;;;;;;-141.97;42.27;47622.88;5008268;28;20178;-82
2022/09/19 07:30:00;;;;;;;6.13;2.60;;;;;;;-141.97;42.41;47611.34;5010282;28;20248;-82
2022/09/19 07:32:26;;;;;;;4.30;2.73;;;;;;;-141.97;42.10;47634.41;5009985;28;20642;-81
2022/09/19 07:34:52;;;;;;;8.70;4.27;;;;;;;-141.97;41.04;47592.13;5009279;28;20645;-81
2022/09/19 07:37:17;;;;;;;8.70;4.50;;;;;;;-141.97;40.66;47624.78;5009127;28;20289;-81
2022/09/19 07:39:43;;;;;;;12.43;5.57;;;;;;;-141.97;39.94;47582.50;5009920;28;20218;-83
2022/09/19 07:42:08;;;;;;;8.07;4.37;;;;;;;-141.97;39.66;47609.41;5011875;28;20182;-82
2022/09/19 07:44:34;;;;;;;4.53;2.60;;;;;;;-141.97;39.07;47597.88;5009692;28;20783;-83
2022/09/19 07:49:42;;;;;;;4.23;2.10;;;;;;;-141.97;38.60;47595.97;5009090;28;20189;-82
2022/09/19 07:52:08;;;;;;;2.83;2.10;;;;;;;-141.97;38.05;47594.03;5008962;28;20202;-82
2022/09/19 07:54:33;;;;;;;2.40;2.00;;;;;;;-141.97;38.17;47622.88;5029828;28;20657;-82
2022/09/19 07:56:59;;;;;;;5.53;2.20;;;;;;;-141.97;38.77;47576.75;5027121;28;20202;-82
2022/09/19 07:59:25;;;;;;;2.43;1.93;;;;;;;-141.97;38.64;47599.81;5000240;28;20233;-82
2022/09/19 08:01:50;;;;;;;3.90;2.20;;;;;;;-141.97;37.88;47619.03;5008623;28;20252;-82
2022/09/19 08:04:16;;;;;;;3.03;2.17;;;;;;;-141.97;37.48;47578.66;5008481;28;20556;-82
2022/09/19 08:06:41;;;;;;;3.37;2.00;;;;;;;-141.97;36.85;47607.50;5009972;28;20230;-82
2022/09/19 08:09:08;;;;;;;7.30;3.60;;;;;;;-141.97;36.56;47553.69;5008815;28;20833;-82
2022/09/19 08:11:36;;;;;;;4.33;1.70;;;;;;;-141.97;35.66;47559.44;5007868;28;20670;-81
2022/09/19 08:14:02;;;;;;;2.20;1.70;;;;;;;-141.97;35.97;47551.75;5007303;28;20667;-82
2022/09/19 08:16:28;;;;;;;4.60;1.80;;;;;;;-141.97;36.47;47592.13;5008039;28;20308;-82
2022/09/19 08:18:53;;;;;;;3.77;1.83;;;;;;;-141.97;37.15;47551.75;5007926;28;20632;-82
2022/09/19 08:21:19;;;;;;;1.90;1.70;;;;;;;-141.97;36.08;47576.75;5009764;28;20622;-82
2022/09/19 08:23:45;;;;;;;2.70;1.80;;;;;;;-141.97;36.11;47570.97;5011286;28;20552;-82
2022/09/19 08:26:11;;;;;;;5.53;2.30;;;;;;;-141.97;35.89;47553.69;5011046;28;20179;-82
2022/09/19 08:28:37;;;;;;;4.93;2.07;;;;;;;-141.97;36.75;47572.91;5011584;28;20182;-82
2022/09/19 08:31:03;;;;;;;5.20;2.00;;;;;;;-141.97;36.25;47557.53;5011209;28;20214;-82
2022/09/19 08:33:30;;;;;;;4.13;2.23;;;;;;;-141.97;35.89;47584.44;5010726;28;20240;-82
2022/09/19 08:35:57;;;;;;;3.80;1.83;;;;;;;-141.97;35.60;47565.22;5011694;28;20214;-82
2022/09/19 08:38:23;;;;;;;2.93;1.90;;;;;;;-141.97;35.47;47580.59;5010662;28;20213;-82
2022/09/19 08:41:00;;;;;;;5.23;1.97;;;;;;;-141.97;35.83;47588.28;5004104;28;20194;-82
2022/09/19 08:43:41;;;;;;;4.80;1.87;;;;;;;-141.97;35.37;47540.22;5008287;28;20193;-82
2022/09/19 08:46:12;;;;;;;2.00;1.80;;;;;;;-141.97;34.76;47549.84;5009359;28;20186;-81
2022/09/19 08:48:49;;;;;;;2.10;1.70;;;;;;;-141.97;34.12;47536.38;5008777;28;20716;-82
2022/09/19 08:51:20;;;;;;;3.23;1.70;;;;;;;-141.97;33.26;47561.38;5008320;28;20269;-81
2022/09/19 08:53:51;;;;;;;2.13;1.60;;;;;;;-141.97;34.16;47657.47;5008059;28;20237;-82
2022/09/19 08:56:18;;;;;;;2.33;1.70;;;;;;;-141.97;33.26;47578.66;5009115;28;20183;-82
2022/09/19 08:58:51;;;;;;;3.40;1.90;;;;;;;-141.97;33.34;47563.28;4998325;28;20241;-82
2022/09/19 09:01:18;;;;;;;3.73;1.83;;;;;;;-141.97;33.01;47580.59;5012687;28;20198;-82
2022/09/19 09:04:07;;;;;;;3.23;2.00;;;;;;;-141.97;33.35;47538.28;5010723;28;20189;-82
2022/09/19 09:06:42;;;;;;;5.97;2.13;;;;;;;-141.97;32.77;47563.28;5011094;28;20191;-82
2022/09/19 09:09:23;;;;;;;6.37;3.13;;;;;;;-141.97;34.15;47530.59;5011830;28;20239;-82
2022/09/19 09:11:55;;;;;;;11.90;3.47;;;;;;;-141.97;35.20;47561.38;5011564;28;20186;-82
2022/09/19 09:14:29;;;;;;;6.20;3.23;;;;;;;-141.97;35.25;47578.66;5011767;28;20268;-83
2022/09/19 09:17:15;;;;;;;6.43;3.47;;;;;;;-141.97;34.85;47519.06;5011142;28;20739;-82
2022/09/19 09:19:56;;;;;;;8.23;3.10;;;;;;;-141.97;34.21;47538.28;5012276;28;20639;-82
2022/09/19 09:22:33;;;;;;;7.07;3.23;;;;;;;-141.97;34.10;47586.34;5010749;28;20182;-82
2022/09/19 09:25:13;;;;;;;7.27;3.37;;;;;;;-141.97;34.04;47503.69;5011542;28;20197;-83
2022/09/19 09:27:56;;;;;;;5.70;3.00;;;;;;;-141.97;33.64;47507.53;5010916;28;20189;-83
2022/09/19 09:30:22;;;;;;;4.57;3.00;;;;;;;-141.97;33.06;47553.69;5011845;28;20194;-83
2022/09/19 09:32:53;;;;;;;4.03;2.83;;;;;;;-141.97;32.57;47497.94;5010976;28;20288;-82
2022/09/19 09:35:34;;;;;;;5.50;2.87;;;;;;;-141.97;33.10;47521.00;5011082;28;20682;-82
2022/09/19 09:38:16;;;;;;;4.50;2.80;;;;;;;-141.97;32.12;47569.06;5010551;28;20288;-85
2022/09/19 09:43:52;;;;;;;5.50;3.00;;;;;;;-141.97;31.84;47482.56;5011216;28;20686;-83
2022/09/19 09:46:31;;;;;;;4.43;2.90;;;;;;;-141.97;31.80;47534.44;5010775;28;20186;-82
2022/09/19 09:48:56;;;;;;;3.63;2.47;;;;;;;-141.97;31.56;47526.75;5009805;28;20185;-82
2022/09/19 09:52:00;;;;;;;5.90;2.60;;;;;;;-141.97;31.48;47511.38;5010537;28;20182;-82
2022/09/19 09:58:04;;;;;;;3.80;2.40;;;;;;;-141.97;31.55;47549.84;4958601;28;20690;-82
2022/09/19 10:03:49;;;;;;;3.23;2.00;;;;;;;-141.97;30.92;47540.22;4977815;28;20190;-81
2022/09/19 10:06:32;;;;;;;4.93;2.00;;;;;;;-141.97;31.07;47511.38;4969289;28;20198;-82
2022/09/19 10:09:18;;;;;;;1.90;1.70;;;;;;;-141.97;30.75;47561.38;4969450;28;20176;-82
2022/09/19 10:11:48;;;;;;;2.63;1.80;;;;;;;-141.97;31.34;47511.38;4969469;28;20203;-81
2022/09/19 10:14:19;;;;;;;3.00;1.50;;;;;;;-141.97;30.95;47542.16;4969632;28;20199;-82
2022/09/19 10:16:47;;;;;;;3.97;1.73;;;;;;;-141.97;31.03;47524.84;4969585;28;20235;-83
2022/09/19 10:19:27;;;;;;;2.87;1.70;;;;;;;-141.97;29.62;47530.59;4968425;28;20199;-81
2022/09/19 10:21:54;;;;;;;1.87;1.40;;;;;;;-141.97;29.76;47553.69;4968179;28;20180;-81
2022/09/19 10:24:56;;;;;;;2.03;1.50;;;;;;;-141.97;29.91;47505.63;4986543;28;20672;-81
2022/09/19 10:27:31;;;;;;;1.83;1.30;;;;;;;-141.97;28.37;47542.16;4989109;28;20198;-85
2022/09/19 10:30:02;;;;;;;2.50;1.30;;;;;;;-141.97;28.69;47542.16;4988530;28;20194;-81
2022/09/19 10:32:37;;;;;;;2.43;1.30;;;;;;;-141.97;29.08;47494.09;5010243;28;20186;-81
2022/09/19 10:35:27;;;;;;;2.70;1.30;;;;;;;-141.97;28.71;47513.31;5007313;28;20173;-83
2022/09/19 10:37:59;;;;;;;1.53;1.30;;;;;;;-141.97;28.48;47507.53;5010041;28;20241;-81
2022/09/19 10:40:25;;;;;;;3.03;1.33;;;;;;;-141.97;28.43;47540.22;5009691;28;20618;-80
2022/09/19 10:42:54;;;;;;;2.03;1.20;;;;;;;-141.97;28.14;47544.06;5009563;28;20673;-82
2022/09/19 10:45:28;;;;;;;2.20;1.30;;;;;;;-141.97;28.78;47515.22;5009201;28;20768;-82
2022/09/19 10:48:00;;;;;;;1.90;1.50;;;;;;;-141.97;29.08;47536.38;5012568;28;20178;-83
2022/09/19 10:50:26;;;;;;;3.00;1.60;;;;;;;-141.97;28.96;47492.16;5012564;28;20256;-82
2022/09/19 10:53:00;;;;;;;3.20;1.30;;;;;;;-141.97;28.71;47526.75;5024673;28;20277;-81
2022/09/19 10:55:26;;;;;;;1.33;1.20;;;;;;;-141.97;28.95;47515.22;5008795;28;20820;-83
2022/09/19 10:58:03;;;;;;;1.60;1.20;;;;;;;-141.97;28.73;47542.16;5010098;28;20870;-82
2022/09/19 11:00:33;;;;;;;2.50;1.37;;;;;;;-141.97;28.24;47519.06;4981296;28;20249;-83
2022/09/19 11:03:16;;;;;;;1.50;1.30;;;;;;;-141.97;28.43;47519.06;4991303;28;20210;-83
2022/09/19 11:05:42;;;;;;;1.40;1.20;;;;;;;-141.97;28.29;47530.59;5005237;28;20186;-83
2022/09/19 11:08:44;;;;;;;2.57;1.27;;;;;;;-141.97;27.63;47497.94;5008113;28;20318;-84
2022/09/19 11:11:40;;;;;;;2.53;1.10;;;;;;;-141.97;27.55;47507.53;4949514;29;20192;-83
2022/09/19 11:14:11;;;;;;;1.30;1.20;;;;;;;-141.97;27.49;47499.84;4948977;29;20228;-83
2022/09/19 11:17:17;;;;;;;1.27;1.17;;;;;;;-141.97;28.33;47530.59;4930066;29;20239;-81
2022/09/19 11:19:53;;;;;;;2.20;1.50;;;;;;;-141.97;27.92;47519.06;4945438;28;20252;-81
2022/09/19 11:22:19;;;;;;;1.07;0.97;;;;;;;-141.97;27.61;47505.63;4947516;28;20215;-82
2022/09/19 11:25:03;;;;;;;1.83;1.20;;;;;;;-141.97;28.58;47499.84;4946154;29;20188;-81
2022/09/19 11:27:55;;;;;;;1.60;1.20;;;;;;;-141.97;28.47;47538.28;4948258;29;20799;-82
2022/09/19 11:30:26;;;;;;;1.90;1.10;;;;;;;-141.97;28.81;47515.22;4947956;29;20756;-81
2022/09/19 11:32:57;;;;;;;1.90;1.40;;;;;;;-141.97;29.34;47499.84;4948649;29;20200;-81
2022/09/19 11:35:25;;;;;;;3.23;1.30;;;;;;;-141.97;28.79;47532.53;4950123;29;20319;-85
2022/09/19 11:37:56;;;;;;;1.47;1.20;;;;;;;-141.97;28.52;47521.00;4950994;29;20271;-83
2022/09/19 11:40:48;;;;;;;1.77;1.20;;;;;;;-141.97;28.52;47530.59;4950959;29;20291;-82
2022/09/19 11:43:45;;;;;;;1.73;1.20;;;;;;;-141.97;28.17;47530.59;4951412;29;20185;-82
2022/09/19 11:46:33;;;;;;;3.50;1.37;;;;;;;-141.97;27.48;47492.16;4912507;29;20584;-83
2022/09/19 11:48:58;;;;;;;1.48;1.20;;;;;;;-141.97;27.52;47497.94;4931859;29;20186;-83
2022/09/19 11:51:49;;;;;;;3.08;1.38;;;;;;;-141.97;27.70;47484.47;4929854;29;20201;-82